createdAt,value
2018-09-06T00:01:38.099Z,6.77
2018-09-06T00:04:06.807Z,7.00
2018-09-06T00:06:35.856Z,7.37
2018-09-06T00:09:06.439Z,7.57
2018-09-06T00:11:36.009Z,6.83
2018-09-06T00:14:05.718Z,7.60
2018-09-06T00:16:34.717Z,7.67
2018-09-06T00:19:03.506Z,6.97
2018-09-06T00:21:32.571Z,7.60
2018-09-06T00:24:03.186Z,8.07
2018-09-06T00:26:32.651Z,6.70
2018-09-06T00:29:01.897Z,6.17
2018-09-06T00:31:31.949Z,7.40
2018-09-06T00:36:37.869Z,6.27
2018-09-06T00:39:09.346Z,7.10
2018-09-06T00:41:38.130Z,7.87
2018-09-06T00:44:07.055Z,7.10
2018-09-06T00:46:36.573Z,6.80
2018-09-06T00:49:05.433Z,8.03
2018-09-06T00:51:34.436Z,7.37
2018-09-06T00:54:03.630Z,6.47
2018-09-06T00:56:32.293Z,8.37
2018-09-06T00:59:09.017Z,7.80
2018-09-06T01:01:37.891Z,8.80
2018-09-06T01:04:06.558Z,8.77
2018-09-06T01:06:35.271Z,8.07
2018-09-06T01:09:05.140Z,7.53
2018-09-06T01:11:33.828Z,7.37
2018-09-06T01:14:02.435Z,7.73
2018-09-06T01:16:31.090Z,8.80
2018-09-06T01:18:59.788Z,8.10
2018-09-06T01:21:28.494Z,8.97
2018-09-06T01:23:57.188Z,9.07
2018-09-06T01:26:25.862Z,7.73
2018-09-06T01:28:54.610Z,7.83
2018-09-06T01:31:23.351Z,7.83
2018-09-06T01:33:51.975Z,9.17
2018-09-06T01:36:25.986Z,8.43
2018-09-06T01:38:54.602Z,10.20
2018-09-06T01:41:23.219Z,8.43
2018-09-06T01:43:51.955Z,8.67
2018-09-06T01:46:20.540Z,8.23
2018-09-06T01:48:49.162Z,7.77
2018-09-06T01:51:17.733Z,8.80
2018-09-06T01:53:46.342Z,8.67
2018-09-06T01:56:14.938Z,9.80
2018-09-06T01:58:43.677Z,8.40
2018-09-06T02:01:12.380Z,7.97
2018-09-06T02:03:41.172Z,7.90
2018-09-06T02:06:09.908Z,7.90
2018-09-06T02:08:38.689Z,9.03
2018-09-06T02:11:07.299Z,8.60
2018-09-06T02:13:36.082Z,8.73
2018-09-06T02:16:05.212Z,10.07
2018-09-06T02:18:34.126Z,8.40
2018-09-06T02:21:03.187Z,8.83
2018-09-06T02:23:32.249Z,7.40
2018-09-06T02:26:01.331Z,8.13
2018-09-06T02:28:30.053Z,8.63
2018-09-06T02:30:58.773Z,8.97
2018-09-06T02:33:27.317Z,8.60
2018-09-06T02:35:55.928Z,8.93
2018-09-06T02:38:24.648Z,8.03
2018-09-06T02:40:53.249Z,8.37
2018-09-06T02:43:21.861Z,9.40
2018-09-06T02:45:50.525Z,8.67
2018-09-06T02:48:19.411Z,8.73
2018-09-06T02:50:53.340Z,9.47
2018-09-06T02:53:22.069Z,8.50
2018-09-06T02:55:50.860Z,9.03
2018-09-06T02:58:19.529Z,8.70
2018-09-06T03:00:48.277Z,7.97
2018-09-06T03:03:16.921Z,8.83
2018-09-06T03:05:45.621Z,8.30
2018-09-06T03:08:14.468Z,8.47
2018-09-06T03:10:44.774Z,10.13
2018-09-06T03:13:13.576Z,9.30
2018-09-06T03:15:42.315Z,9.67
2018-09-06T03:18:10.953Z,10.67
2018-09-06T03:20:39.634Z,9.40
2018-09-06T03:23:08.352Z,9.70
2018-09-06T03:25:37.034Z,9.77
2018-09-06T03:28:05.786Z,10.23
2018-09-06T03:30:34.485Z,9.83
2018-09-06T03:33:03.404Z,11.10
2018-09-06T03:35:32.676Z,10.50
2018-09-06T03:38:01.619Z,10.60
2018-09-06T03:40:30.535Z,11.37
2018-09-06T03:42:59.068Z,9.23
2018-09-06T03:45:27.703Z,9.90
2018-09-06T03:47:56.326Z,9.93
2018-09-06T03:50:25.033Z,9.20
2018-09-06T03:52:53.598Z,12.13
2018-09-06T03:55:22.387Z,11.03
2018-09-06T03:57:51.072Z,12.63
2018-09-06T04:00:19.795Z,10.23
2018-09-06T04:02:48.391Z,12.00
2018-09-06T04:05:17.171Z,10.90
2018-09-06T04:07:45.758Z,10.60
2018-09-06T04:10:14.434Z,11.30
2018-09-06T04:12:43.053Z,12.17
2018-09-06T04:15:11.868Z,11.77
2018-09-06T04:17:40.623Z,11.53
2018-09-06T04:20:09.303Z,10.63
2018-09-06T04:22:55.466Z,10.33
2018-09-06T04:25:24.345Z,11.50
2018-09-06T04:27:53.159Z,10.20
2018-09-06T04:30:21.816Z,11.20
2018-09-06T04:32:50.519Z,11.33
2018-09-06T04:35:19.757Z,10.43
2018-09-06T04:37:48.433Z,11.00
2018-09-06T04:40:17.110Z,11.17
2018-09-06T04:42:45.742Z,11.17
2018-09-06T04:45:14.534Z,12.17
2018-09-06T04:47:43.226Z,11.43
2018-09-06T04:50:11.865Z,11.07
2018-09-06T04:52:41.268Z,12.27
2018-09-06T04:55:09.999Z,12.30
2018-09-06T04:57:38.653Z,14.70
2018-09-06T05:00:07.387Z,12.90
2018-09-06T05:02:36.176Z,13.23
2018-09-06T05:05:05.064Z,13.00
2018-09-06T05:07:33.895Z,13.60
2018-09-06T05:10:02.594Z,13.40
2018-09-06T05:12:31.387Z,13.47
2018-09-06T05:15:00.018Z,13.30
2018-09-06T05:17:28.703Z,13.93
2018-09-06T05:19:57.377Z,13.87
2018-09-06T05:22:26.032Z,14.00
2018-09-06T05:24:54.720Z,15.30
2018-09-06T05:27:23.497Z,13.47
2018-09-06T05:29:52.154Z,14.70
2018-09-06T05:32:20.914Z,13.90
2018-09-06T05:34:49.793Z,13.13
2018-09-06T05:37:18.417Z,12.73
2018-09-06T05:39:47.194Z,15.60
2018-09-06T05:42:15.981Z,14.83
2018-09-06T05:44:44.717Z,15.53
2018-09-06T05:47:14.048Z,14.20
2018-09-06T05:49:42.872Z,13.20
2018-09-06T05:52:11.585Z,15.07
2018-09-06T05:54:40.322Z,15.87
2018-09-06T05:57:09.072Z,14.80
2018-09-06T05:59:37.773Z,14.50
2018-09-06T06:02:06.633Z,14.10
2018-09-06T06:04:35.373Z,15.40
2018-09-06T06:07:04.049Z,14.27
2018-09-06T06:09:32.736Z,15.57
2018-09-06T06:12:01.530Z,15.60
2018-09-06T06:14:30.422Z,15.50
2018-09-06T06:16:59.178Z,16.40
2018-09-06T06:19:28.089Z,16.50
2018-09-06T06:21:56.744Z,16.50
2018-09-06T06:24:26.394Z,14.70
2018-09-06T06:26:55.188Z,15.53
2018-09-06T06:29:24.030Z,16.57
2018-09-06T06:31:52.790Z,14.70
2018-09-06T06:34:21.658Z,16.00
2018-09-06T06:36:50.324Z,13.40
2018-09-06T06:39:19.113Z,15.70
2018-09-06T06:41:47.822Z,15.80
2018-09-06T06:44:16.577Z,15.43
2018-09-06T06:46:45.227Z,17.00
2018-09-06T06:49:13.916Z,17.30
2018-09-06T06:51:42.567Z,17.00
2018-09-06T06:54:11.216Z,15.70
2018-09-06T06:56:39.894Z,18.10
2018-09-06T06:59:08.801Z,16.40
2018-09-06T07:01:37.593Z,14.50
2018-09-06T07:04:06.286Z,17.07
2018-09-06T07:06:34.950Z,17.27
2018-09-06T07:09:03.957Z,16.93
2018-09-06T07:11:32.852Z,15.90
2018-09-06T07:14:01.486Z,15.33
2018-09-06T07:16:30.153Z,15.30
2018-09-06T07:18:58.940Z,15.43
2018-09-06T07:21:27.661Z,14.80
2018-09-06T07:23:56.320Z,16.47
2018-09-06T07:26:25.200Z,15.00
2018-09-06T07:28:54.264Z,15.87
2018-09-06T07:31:22.938Z,15.40
2018-09-06T07:33:52.006Z,14.00
2018-09-06T07:36:20.959Z,15.77
2018-09-06T07:38:49.717Z,13.50
2018-09-06T07:41:18.349Z,14.83
2018-09-06T07:43:46.927Z,14.30
2018-09-06T07:46:15.534Z,13.73
2018-09-06T07:48:44.286Z,13.00
2018-09-06T07:51:12.917Z,12.87
2018-09-06T07:53:41.785Z,13.87
2018-09-06T07:56:10.443Z,15.03
2018-09-06T07:58:39.791Z,13.43
2018-09-06T08:01:08.346Z,13.40
2018-09-06T08:03:37.174Z,13.20
2018-09-06T08:06:05.792Z,14.30
2018-09-06T08:08:34.385Z,13.20
2018-09-06T08:11:03.076Z,14.27
2018-09-06T08:13:31.684Z,13.37
2018-09-06T08:16:00.271Z,12.23
2018-09-06T08:18:28.858Z,12.93
2018-09-06T08:20:57.540Z,11.63
2018-09-06T08:23:26.253Z,13.03
2018-09-06T08:25:54.910Z,12.60
2018-09-06T08:28:23.562Z,11.27
2018-09-06T08:30:52.354Z,9.70
2018-09-06T08:33:20.921Z,12.33
2018-09-06T08:35:49.542Z,12.47
2018-09-06T08:38:18.183Z,12.83
2018-09-06T08:40:46.847Z,12.03
2018-09-06T08:43:15.430Z,12.97
2018-09-06T08:45:44.305Z,14.23
2018-09-06T08:48:13.127Z,14.10
2018-09-06T08:50:41.860Z,14.07
2018-09-06T08:53:10.427Z,13.50
2018-09-06T08:55:39.155Z,14.20
2018-09-06T08:58:07.772Z,14.37
2018-09-06T09:00:40.483Z,12.80
2018-09-06T09:03:10.841Z,13.33
2018-09-06T09:05:39.413Z,14.33
2018-09-06T09:08:08.048Z,12.80
2018-09-06T09:10:36.821Z,13.67
2018-09-06T09:13:05.986Z,13.17
2018-09-06T09:15:34.873Z,13.17
2018-09-06T09:18:04.302Z,12.80
2018-09-06T09:20:33.054Z,12.50
2018-09-06T09:23:01.806Z,14.10
2018-09-06T09:25:30.633Z,12.50
2018-09-06T09:27:59.501Z,13.47
2018-09-06T09:30:28.771Z,12.13
2018-09-06T09:32:57.631Z,12.20
2018-09-06T09:35:26.234Z,13.20
2018-09-06T09:37:54.854Z,12.13
2018-09-06T09:40:23.495Z,12.23
2018-09-06T09:42:52.586Z,11.53
2018-09-06T09:45:21.377Z,11.80
2018-09-06T09:47:51.091Z,11.67
2018-09-06T09:52:47.879Z,10.93
2018-09-06T09:55:16.524Z,12.33
2018-09-06T09:57:45.205Z,12.57
2018-09-06T10:00:13.878Z,11.47
2018-09-06T10:02:47.926Z,14.53
2018-09-06T10:05:21.905Z,13.10
2018-09-06T10:07:55.892Z,13.43
2018-09-06T10:10:24.669Z,13.13
2018-09-06T10:12:53.341Z,15.23
2018-09-06T10:15:21.959Z,14.77
2018-09-06T10:17:51.584Z,16.37
2018-09-06T10:20:20.427Z,15.07
2018-09-06T10:22:49.301Z,16.83
2018-09-06T10:25:17.953Z,16.40
2018-09-06T10:27:46.679Z,14.63
2018-09-06T10:30:15.315Z,15.33
2018-09-06T10:32:43.977Z,15.10
2018-09-06T10:35:12.768Z,16.00
2018-09-06T10:37:41.447Z,16.40
2018-09-06T10:40:10.195Z,15.60
2018-09-06T10:42:39.292Z,16.80
2018-09-06T10:45:09.868Z,18.07
2018-09-06T10:47:38.655Z,17.30
2018-09-06T10:50:07.334Z,18.07
2018-09-06T10:52:36.037Z,17.10
2018-09-06T10:55:04.775Z,19.30
2018-09-06T10:57:33.527Z,18.23
2018-09-06T11:00:02.358Z,17.30
2018-09-06T11:02:31.076Z,15.87
2018-09-06T11:04:59.768Z,17.40
2018-09-06T11:07:28.511Z,16.30
2018-09-06T11:09:57.188Z,17.10
2018-09-06T11:12:25.852Z,16.73
2018-09-06T11:14:54.450Z,15.13
2018-09-06T11:17:23.180Z,16.80
2018-09-06T11:19:51.833Z,17.23
2018-09-06T11:22:20.551Z,17.50
2018-09-06T11:24:49.093Z,17.10
2018-09-06T11:27:17.716Z,19.13
2018-09-06T11:29:46.414Z,16.37
2018-09-06T11:32:14.963Z,17.43
2018-09-06T11:34:43.646Z,17.33
2018-09-06T11:37:12.236Z,18.33
2018-09-06T11:39:40.839Z,20.23
2018-09-06T11:42:09.496Z,18.60
2018-09-06T11:44:38.106Z,17.83
2018-09-06T11:47:06.658Z,18.57
2018-09-06T11:49:35.292Z,19.33
2018-09-06T11:52:04.033Z,20.70
2018-09-06T11:54:32.974Z,21.97
2018-09-06T11:57:01.626Z,20.20
2018-09-06T11:59:30.418Z,20.73
2018-09-06T12:01:59.368Z,21.50
2018-09-06T12:04:28.074Z,20.97
2018-09-06T12:06:56.667Z,20.53
2018-09-06T12:09:25.293Z,20.17
2018-09-06T12:11:54.011Z,21.53
2018-09-06T12:14:22.623Z,22.67
2018-09-06T12:16:51.456Z,23.60
2018-09-06T12:19:20.200Z,24.50
2018-09-06T12:21:48.812Z,23.07
2018-09-06T12:24:17.549Z,24.70
2018-09-06T12:26:46.214Z,24.20
2018-09-06T12:29:14.815Z,24.63
2018-09-06T12:31:43.565Z,22.60
2018-09-06T12:34:12.386Z,22.80
2018-09-06T12:36:41.178Z,21.07
2018-09-06T12:39:10.455Z,21.50
2018-09-06T12:41:39.742Z,20.50
2018-09-06T12:44:08.627Z,19.47
2018-09-06T12:46:37.297Z,19.50
2018-09-06T12:49:06.028Z,19.43
2018-09-06T12:51:35.031Z,18.50
2018-09-06T12:54:03.864Z,17.27
2018-09-06T12:56:32.560Z,17.80
2018-09-06T12:59:01.977Z,15.10
2018-09-06T13:01:30.633Z,15.70
2018-09-06T13:03:59.381Z,15.27
2018-09-06T13:06:27.995Z,13.40
2018-09-06T13:08:56.708Z,13.60
2018-09-06T13:11:25.433Z,15.53
2018-09-06T13:13:54.089Z,14.73
2018-09-06T13:16:22.681Z,15.97
2018-09-06T13:18:51.919Z,16.30
2018-09-06T13:21:20.474Z,13.67
2018-09-06T13:23:49.189Z,14.80
2018-09-06T13:26:18.181Z,14.07
2018-09-06T13:28:46.875Z,14.97
2018-09-06T13:31:15.736Z,15.27
2018-09-06T13:33:44.886Z,13.53
2018-09-06T13:36:13.545Z,15.97
2018-09-06T13:38:42.733Z,14.57
2018-09-06T13:41:11.428Z,15.13
2018-09-06T13:43:40.054Z,15.23
2018-09-06T13:46:09.166Z,16.60
2018-09-06T13:48:37.734Z,14.53
2018-09-06T13:51:06.392Z,15.17
2018-09-06T13:53:34.991Z,15.13
2018-09-06T13:56:03.753Z,14.70
2018-09-06T13:58:32.452Z,15.63
2018-09-06T14:01:01.039Z,15.50
2018-09-06T14:03:29.977Z,14.20
2018-09-06T14:05:58.757Z,14.07
2018-09-06T14:08:27.423Z,13.57
2018-09-06T14:10:56.081Z,13.20
2018-09-06T14:13:24.782Z,14.00
2018-09-06T14:15:53.473Z,13.33
2018-09-06T14:18:22.162Z,11.90
2018-09-06T14:20:50.877Z,11.20
2018-09-06T14:23:19.598Z,12.70
2018-09-06T14:25:48.263Z,11.60
2018-09-06T14:28:16.857Z,13.20
2018-09-06T14:30:45.436Z,13.00
2018-09-06T14:33:14.678Z,12.80
2018-09-06T14:35:43.241Z,13.40
2018-09-06T14:38:12.580Z,14.07
2018-09-06T14:40:41.467Z,17.97
2018-09-06T14:43:10.128Z,18.70
2018-09-06T14:45:38.846Z,17.50
2018-09-06T14:48:07.476Z,18.77
2018-09-06T14:50:36.041Z,18.00
2018-09-06T14:53:04.673Z,19.07
2018-09-06T14:55:33.364Z,18.80
2018-09-06T14:58:02.142Z,18.87
2018-09-06T15:00:30.786Z,22.43
2018-09-06T15:02:59.524Z,21.60
2018-09-06T15:05:28.176Z,22.17
2018-09-06T15:07:56.839Z,21.60
2018-09-06T15:10:25.454Z,24.00
2018-09-06T15:13:00.553Z,25.03
2018-09-06T15:15:30.267Z,24.17
2018-09-06T15:17:59.038Z,24.00
2018-09-06T15:20:27.674Z,25.37
2018-09-06T15:22:56.396Z,26.13
2018-09-06T15:25:25.074Z,28.40
2018-09-06T15:27:53.777Z,28.00
2018-09-06T15:30:22.575Z,27.40
2018-09-06T15:32:54.861Z,30.20
2018-09-06T15:35:45.267Z,31.53
2018-09-06T15:38:17.795Z,30.77
2018-09-06T15:40:49.184Z,35.17
2018-09-06T15:43:17.835Z,33.90
2018-09-06T15:45:46.539Z,35.40
2018-09-06T15:48:15.267Z,34.17
2018-09-06T15:50:46.808Z,36.33
2018-09-06T15:53:16.376Z,34.47
2018-09-06T15:55:45.004Z,36.33
2018-09-06T15:58:14.549Z,40.23
2018-09-06T16:00:43.172Z,44.60
2018-09-06T16:03:15.965Z,44.83
2018-09-06T16:05:44.882Z,43.30
2018-09-06T16:08:13.573Z,43.47
2018-09-06T16:10:42.742Z,42.30
2018-09-06T16:13:11.506Z,42.47
2018-09-06T16:15:40.132Z,41.17
2018-09-06T16:18:08.984Z,48.23
2018-09-06T16:20:37.674Z,43.63
2018-09-06T16:23:06.423Z,45.93
2018-09-06T16:25:34.933Z,46.03
2018-09-06T16:28:03.753Z,49.73
2018-09-06T16:30:32.270Z,50.50
2018-09-06T16:33:00.884Z,49.70
2018-09-06T16:35:29.491Z,48.27
2018-09-06T16:37:58.166Z,47.27
2018-09-06T16:40:26.888Z,48.97
2018-09-06T16:42:55.602Z,45.40
2018-09-06T16:45:24.267Z,47.13
2018-09-06T16:47:52.902Z,47.87
2018-09-06T16:50:21.740Z,50.00
2018-09-06T16:52:50.521Z,45.10
2018-09-06T16:55:19.199Z,47.50
2018-09-06T16:57:47.957Z,48.50
2018-09-06T17:00:16.695Z,50.67
2018-09-06T17:02:45.353Z,49.63
2018-09-06T17:05:13.978Z,51.07
2018-09-06T17:07:42.702Z,50.67
2018-09-06T17:10:11.331Z,49.50
2018-09-06T17:12:39.966Z,49.57
2018-09-06T17:15:08.689Z,54.53
2018-09-06T17:17:38.777Z,53.07
2018-09-06T17:20:07.742Z,52.17
2018-09-06T17:22:36.541Z,52.47
2018-09-06T17:25:05.355Z,50.33
2018-09-06T17:27:34.073Z,49.83
2018-09-06T17:30:02.724Z,52.27
2018-09-06T17:32:31.402Z,54.80
2018-09-06T17:35:00.111Z,53.87
2018-09-06T17:37:28.849Z,51.50
2018-09-06T17:39:57.846Z,50.63
2018-09-06T17:42:27.360Z,51.40
2018-09-06T17:44:56.091Z,52.40
2018-09-06T17:47:24.822Z,53.83
2018-09-06T17:49:53.457Z,52.47
2018-09-06T17:52:22.088Z,50.47
2018-09-06T17:54:50.847Z,50.90
2018-09-06T17:57:19.396Z,53.50
2018-09-06T17:59:48.082Z,52.90
2018-09-06T18:02:17.565Z,53.50
2018-09-06T18:07:37.037Z,56.50
2018-09-06T18:10:06.083Z,55.10
2018-09-06T18:12:34.958Z,61.90
2018-09-06T18:15:05.007Z,58.67
2018-09-06T18:17:33.883Z,57.10
2018-09-06T18:20:02.672Z,59.33
2018-09-06T18:22:32.572Z,59.57
2018-09-06T18:25:01.381Z,61.20
2018-09-06T18:27:30.221Z,60.13
2018-09-06T18:29:58.966Z,58.57
2018-09-06T18:32:27.607Z,60.57
2018-09-06T18:34:56.940Z,61.07
2018-09-06T18:37:26.302Z,61.27
2018-09-06T18:39:55.355Z,61.30
2018-09-06T18:42:24.145Z,62.57
2018-09-06T18:44:52.750Z,63.70
2018-09-06T18:47:21.758Z,64.63
2018-09-06T18:49:51.535Z,63.50
2018-09-06T18:52:22.549Z,65.97
2018-09-06T18:54:51.510Z,68.53
2018-09-06T18:57:21.684Z,69.80
2018-09-06T18:59:51.585Z,66.40
2018-09-06T19:02:20.921Z,71.00
2018-09-06T19:04:49.923Z,67.47
2018-09-06T19:07:18.526Z,70.43
2018-09-06T19:09:48.455Z,69.73
2018-09-06T19:12:17.488Z,73.43
2018-09-06T19:14:46.313Z,69.47
2018-09-06T19:17:15.082Z,69.83
2018-09-06T19:19:43.854Z,68.13
2018-09-06T19:22:13.792Z,68.57
2018-09-06T19:24:42.721Z,71.50
2018-09-06T19:27:11.636Z,64.97
2018-09-06T19:29:41.734Z,67.30
2018-09-06T19:32:11.061Z,64.30
2018-09-06T19:34:39.779Z,63.57
2018-09-06T19:37:08.440Z,64.33
2018-09-06T19:39:37.122Z,61.00
2018-09-06T19:42:06.655Z,61.63
2018-09-06T19:44:35.321Z,59.10
2018-09-06T19:47:04.043Z,57.00
2018-09-06T19:49:34.268Z,57.30
2018-09-06T19:52:03.467Z,55.97
2018-09-06T19:54:32.221Z,51.53
2018-09-06T19:57:01.468Z,54.30
2018-09-06T19:59:30.324Z,53.80
2018-09-06T20:01:59.209Z,50.20
2018-09-06T20:04:28.372Z,54.53
2018-09-06T20:06:57.230Z,49.13
2018-09-06T20:09:26.337Z,53.07
2018-09-06T20:11:56.318Z,46.67
2018-09-06T20:14:25.070Z,47.37
2018-09-06T20:16:54.231Z,45.27
2018-09-06T20:19:22.876Z,37.57
2018-09-06T20:21:53.134Z,41.40
2018-09-06T20:24:22.295Z,37.87
2018-09-06T20:26:50.946Z,33.17
2018-09-06T20:29:19.722Z,36.97
2018-09-06T20:31:48.466Z,37.07
2018-09-06T20:34:17.186Z,36.40
2018-09-06T20:36:46.178Z,34.70
2018-09-06T20:39:15.120Z,29.77
2018-09-06T20:41:44.747Z,26.97
2018-09-06T20:44:13.414Z,21.90
2018-09-06T20:46:56.062Z,21.90
2018-09-06T20:49:25.298Z,18.57
2018-09-06T20:51:54.105Z,19.77
2018-09-06T20:54:22.983Z,19.80
2018-09-06T20:56:53.069Z,18.90
2018-09-06T20:59:21.906Z,16.80
2018-09-06T21:01:52.105Z,18.37
2018-09-06T21:04:21.986Z,17.90
2018-09-06T21:06:50.670Z,18.43
2018-09-06T21:09:20.200Z,18.97
2018-09-06T21:11:49.244Z,19.90
2018-09-06T21:14:19.695Z,18.47
2018-09-06T21:16:48.515Z,21.23
2018-09-06T21:19:17.649Z,19.23
2018-09-06T21:21:46.716Z,18.67
2018-09-06T21:24:16.343Z,19.33
2018-09-06T21:26:45.105Z,18.60
2018-09-06T21:29:13.874Z,18.67
2018-09-06T21:31:42.986Z,18.80
2018-09-06T21:34:11.813Z,18.60
2018-09-06T21:36:41.070Z,17.87
2018-09-06T21:39:12.370Z,18.23
2018-09-06T21:41:42.228Z,17.30
2018-09-06T21:44:12.206Z,16.23
2018-09-06T21:46:41.867Z,14.67
2018-09-06T21:49:11.559Z,15.60
2018-09-06T21:51:41.679Z,15.40
2018-09-06T21:54:10.550Z,14.40
2018-09-06T21:56:39.971Z,12.50
2018-09-06T21:59:08.996Z,14.23
2018-09-06T22:01:39.616Z,12.10
2018-09-06T22:04:09.718Z,10.90
2018-09-06T22:06:39.662Z,12.43
2018-09-06T22:09:12.269Z,11.60
2018-09-06T22:11:41.616Z,11.33
2018-09-06T22:14:10.645Z,12.03
2018-09-06T22:16:39.641Z,12.27
2018-09-06T22:19:09.933Z,12.27
2018-09-06T22:21:41.253Z,11.93
2018-09-06T22:24:10.529Z,10.80
2018-09-06T22:26:39.933Z,12.00
2018-09-06T22:29:08.645Z,9.83
2018-09-06T22:31:37.391Z,10.73
2018-09-06T22:34:06.574Z,9.13
2018-09-06T22:36:35.466Z,8.60
2018-09-06T22:39:06.379Z,8.50
2018-09-06T22:41:35.773Z,8.93
2018-09-06T22:44:05.267Z,9.33
2018-09-06T22:46:36.007Z,8.70
2018-09-06T22:49:05.849Z,9.03
2018-09-06T22:51:35.144Z,7.70
2018-09-06T22:54:05.415Z,7.87
2018-09-06T22:56:34.289Z,7.67
2018-09-06T22:59:03.314Z,9.00
2018-09-06T23:01:32.407Z,7.80
2018-09-06T23:04:01.751Z,8.10
2018-09-06T23:06:31.165Z,8.97
2018-09-06T23:09:00.216Z,8.03
2018-09-06T23:11:29.512Z,6.00
2018-09-06T23:13:58.874Z,7.50
2018-09-06T23:16:28.153Z,6.67
2018-09-06T23:18:58.683Z,6.60
2018-09-06T23:21:28.184Z,8.63
2018-09-06T23:23:57.187Z,9.13
2018-09-06T23:26:26.869Z,7.60
2018-09-06T23:28:56.011Z,7.63
2018-09-06T23:31:24.745Z,8.87
2018-09-06T23:33:53.464Z,8.20
2018-09-06T23:36:22.247Z,9.50
2018-09-06T23:38:51.302Z,9.43
2018-09-06T23:41:20.133Z,8.73
2018-09-06T23:43:48.818Z,10.40
2018-09-06T23:46:17.680Z,9.23
2018-09-06T23:48:46.411Z,10.50
2018-09-06T23:51:15.083Z,8.83
2018-09-06T23:53:43.789Z,10.17
2018-09-06T23:56:13.721Z,9.97
2018-09-06T23:58:43.146Z,10.33
